Terminal Aerodrome Forecast
Issued by NWS

Home | Current Version | Previous Version | Text Only | Print | Product List | Glossary On
Versions: 1 2 3 4 5 6 7 8 9 10 11 12 13 14 15 16 17 18 19 20 21 22 23 24
140
FTUS43 KFGF 110542
TAFBJI
TAF
KBJI 110542Z 1106/1206 17005KT 1SM -SN OVC015
     FM110800 20005KT P6SM OVC008
      TEMPO 1108/1111 2SM -SN OVC003
     FM111100 29006KT 4SM -SN OVC008
     FM111200 32007KT P6SM OVC008
      TEMPO 1112/1113 1SM -SN OVC003
     FM111400 33012KT P6SM OVC010
     FM111700 33016G24KT P6SM BKN025
     FM111800 33016G24KT P6SM BKN015
     FM112200 32017G26KT P6SM SCT015
     FM120100 32011KT P6SM SCT070=

USA.gov is the U.S. government's official web portal to all federal, state and local government web resources and services.